Dati Storici

Data ora Umidita' aria (%) Temperatura aria (°C) Rad globale (W/m²) Gonioanemometro (°) Tacoanemometro (m/s) Pioggia (mm)
14-10-2012 00:40 82.7 % 12.446 1.951 326.94 1.158 0
14-10-2012 00:30 82.8 % 12.224 1.938 328.755 0.5 0
14-10-2012 00:20 82.8 % 12.303 1.874 330.338 0.637 0
14-10-2012 00:10 82.6 % 12.269 1.68 25.67 0.259 0
14-10-2012 00:00 82.3 % 12.457 1.872 40.283 1.427 0
13-10-2012 23:50 81.8 % 12.611 2.116 5.65 1.663 0
13-10-2012 23:40 81.6 % 12.728 1.876 0.069 1.753 0
13-10-2012 23:30 81.3 % 12.829 2.018 331.525 0.949 0
13-10-2012 23:20 80.9 % 12.92 2.184 57.499 1.043 0
13-10-2012 23:10 80.4 % 13.061 2.492 52.515 2.02 0
13-10-2012 23:00 80 % 13.205 2.953 33.324 1.895 0
13-10-2012 22:50 79.8 % 13.298 3.632 1.299 2.506 0
13-10-2012 22:40 79.9 % 13.353 3.555 13.165 2.49 0
13-10-2012 22:30 79.9 % 13.378 3.094 32.56 1.403 0
13-10-2012 22:20 79.5 % 13.432 3.184 9.223 3.664 0
13-10-2012 22:10 79.5 % 13.597 3.812 35.052 2.816 0
13-10-2012 22:00 79.3 % 13.671 4.318 4.904 3.728 0
13-10-2012 21:50 79.1 % 13.672 4.485 25.233 3.379 0
13-10-2012 21:40 79.3 % 13.7 4.498 21.252 1.807 0
13-10-2012 21:30 79.5 % 13.642 4.369 26.383 2.13 0

I dati sono presentati in modo automatico a scopo informativo. In seguito a verifica i dati possono subire modifiche o essere invalidati e non riportati negli archivi definitivi.